createdAt,value
2023-03-18T00:01:44.127Z,101010.71
2023-03-18T00:05:12.261Z,101009.02
2023-03-18T00:08:41.330Z,101005.08
2023-03-18T00:12:11.356Z,101003.44
2023-03-18T00:15:21.076Z,100998.89
2023-03-18T00:18:49.111Z,100997.04
2023-03-18T00:22:18.633Z,101002.13
2023-03-18T00:25:51.275Z,100997.06
2023-03-18T00:29:19.630Z,100995.45
2023-03-18T00:32:48.685Z,100987.05
2023-03-18T00:36:16.645Z,100980.40
2023-03-18T00:39:44.753Z,100978.91
2023-03-18T00:43:13.148Z,100975.45
2023-03-18T00:46:40.920Z,100977.08
2023-03-18T00:50:09.040Z,100972.73
2023-03-18T00:53:37.093Z,100969.48
2023-03-18T00:57:05.224Z,100967.69
2023-03-18T01:00:33.853Z,100961.40
2023-03-18T01:04:01.582Z,100956.70
2023-03-18T01:07:29.696Z,100949.64
2023-03-18T01:10:58.143Z,100952.34
2023-03-18T01:14:26.018Z,100951.52
2023-03-18T01:17:53.941Z,100952.21
2023-03-18T01:21:22.188Z,100944.73
2023-03-18T01:24:31.293Z,100942.34
2023-03-18T01:27:59.243Z,100942.04
2023-03-18T01:31:08.385Z,100943.20
2023-03-18T01:33:57.608Z,100942.48
2023-03-18T01:37:25.622Z,100936.77
2023-03-18T01:40:53.450Z,100938.20
2023-03-18T01:44:21.502Z,100936.98
2023-03-18T01:47:29.671Z,100931.42
2023-03-18T01:50:57.660Z,100931.05
2023-03-18T01:54:26.150Z,100934.84
2023-03-18T01:57:54.649Z,100937.63
2023-03-18T02:01:22.632Z,100937.18
2023-03-18T02:04:50.463Z,100938.17
2023-03-18T02:08:02.720Z,100936.34
2023-03-18T02:11:30.850Z,100939.42
2023-03-18T02:14:58.993Z,100939.18
2023-03-18T02:18:26.943Z,100939.24
2023-03-18T02:21:36.131Z,100946.00
2023-03-18T02:24:45.212Z,100941.02
2023-03-18T02:28:13.008Z,100943.11
2023-03-18T02:31:41.052Z,100941.73
2023-03-18T02:35:08.981Z,100933.06
2023-03-18T02:37:58.698Z,100930.08
2023-03-18T02:41:26.856Z,100936.23
2023-03-18T02:44:34.925Z,100930.08
2023-03-18T02:47:56.909Z,100932.23
2023-03-18T02:51:25.121Z,100932.05
2023-03-18T02:54:53.024Z,100925.38
2023-03-18T02:58:21.040Z,100931.39
2023-03-18T03:01:49.043Z,100931.24
2023-03-18T03:05:16.860Z,100936.40
2023-03-18T03:08:45.793Z,100937.13
2023-03-18T03:11:55.118Z,100939.08
2023-03-18T03:15:23.157Z,100938.61
2023-03-18T03:18:51.105Z,100938.13
2023-03-18T03:22:19.270Z,100939.30
2023-03-18T03:25:47.131Z,100937.95
2023-03-18T03:29:15.206Z,100938.63
2023-03-18T03:32:43.763Z,100941.89
2023-03-18T03:36:11.595Z,100941.90
2023-03-18T03:39:39.585Z,100945.99
2023-03-18T03:43:07.495Z,100942.23
2023-03-18T03:46:35.506Z,100947.93
2023-03-18T03:50:03.452Z,100948.89
2023-03-18T03:53:31.373Z,100947.82
2023-03-18T03:56:59.300Z,100955.21
2023-03-18T04:00:07.673Z,100959.36
2023-03-18T04:03:35.788Z,100958.20
2023-03-18T04:06:28.970Z,100960.73
2023-03-18T04:09:56.849Z,100960.21
2023-03-18T04:13:25.557Z,100958.23
2023-03-18T04:16:53.841Z,100959.49
2023-03-18T04:20:21.769Z,100957.15
2023-03-18T04:23:52.472Z,100959.79
2023-03-18T04:27:00.664Z,100958.74
2023-03-18T04:30:28.813Z,100962.95
2023-03-18T04:33:56.785Z,100960.20
2023-03-18T04:37:04.671Z,100958.95
2023-03-18T04:40:32.949Z,100958.04
2023-03-18T04:43:45.073Z,100957.34
2023-03-18T04:47:13.039Z,100958.73
2023-03-18T04:50:41.326Z,100961.27
2023-03-18T04:54:09.292Z,100967.88
2023-03-18T04:57:37.453Z,100964.89
2023-03-18T05:01:05.829Z,100965.54
2023-03-18T05:04:33.751Z,100962.49
2023-03-18T05:08:01.496Z,100965.52
2023-03-18T05:11:29.220Z,100969.96
2023-03-18T05:15:00.117Z,100971.24
2023-03-18T05:18:28.058Z,100978.21
2023-03-18T05:21:55.798Z,100983.73
2023-03-18T05:25:23.979Z,100989.36
2023-03-18T05:28:51.835Z,100985.64
2023-03-18T05:31:59.831Z,100987.60
2023-03-18T05:34:49.510Z,100982.80
2023-03-18T05:38:17.643Z,100983.65
2023-03-18T05:41:45.605Z,100988.23
2023-03-18T05:44:53.808Z,100987.21
2023-03-18T05:48:22.082Z,100987.61
2023-03-18T05:51:54.850Z,100989.44
2023-03-18T05:55:20.897Z,100995.13
2023-03-18T05:58:48.706Z,100996.48
2023-03-18T06:02:17.060Z,100996.93
2023-03-18T06:05:44.782Z,100997.82
2023-03-18T06:09:12.757Z,101003.08
2023-03-18T06:12:40.603Z,101005.36
2023-03-18T06:15:49.063Z,101008.02
2023-03-18T06:19:18.725Z,101007.89
2023-03-18T06:22:47.690Z,101009.40
2023-03-18T06:25:56.906Z,101007.12
2023-03-18T06:29:25.175Z,101005.61
2023-03-18T06:32:34.046Z,101013.91
2023-03-18T06:35:42.939Z,101012.88
2023-03-18T06:39:10.905Z,101011.35
2023-03-18T06:42:28.250Z,101017.25
2023-03-18T06:45:57.386Z,101017.91
2023-03-18T06:48:47.923Z,101015.14
2023-03-18T06:52:16.244Z,101014.38
2023-03-18T06:55:44.363Z,101018.04
2023-03-18T06:59:12.441Z,101020.41
2023-03-18T07:02:40.461Z,101020.98
2023-03-18T07:06:08.451Z,101021.45
2023-03-18T07:09:36.477Z,101019.20
2023-03-18T07:12:45.726Z,101020.85
2023-03-18T07:16:13.914Z,101019.58
2023-03-18T07:19:41.973Z,101025.66
2023-03-18T07:23:11.385Z,101023.70
2023-03-18T07:26:39.747Z,101024.83
2023-03-18T07:30:07.928Z,101023.89
2023-03-18T07:33:36.971Z,101033.46
2023-03-18T07:37:04.850Z,101029.35
2023-03-18T07:40:13.976Z,101030.61
2023-03-18T07:43:42.351Z,101034.66
2023-03-18T07:47:10.721Z,101035.59
2023-03-18T07:50:38.922Z,101037.89
2023-03-18T07:53:47.849Z,101040.73
2023-03-18T07:57:16.116Z,101045.25
2023-03-18T08:00:44.100Z,101047.83
2023-03-18T08:03:34.649Z,101047.68
2023-03-18T08:07:02.622Z,101046.92
2023-03-18T08:10:30.485Z,101049.91
2023-03-18T08:13:58.464Z,101050.14
2023-03-18T08:17:26.196Z,101053.80
2023-03-18T08:20:54.003Z,101055.82
2023-03-18T08:24:21.926Z,101053.16
2023-03-18T08:27:49.868Z,101055.12
2023-03-18T08:31:17.754Z,101056.77
2023-03-18T08:34:45.406Z,101056.79
2023-03-18T08:38:13.242Z,101061.04
2023-03-18T08:41:41.054Z,101061.22
2023-03-18T08:45:08.770Z,101063.98
2023-03-18T08:48:36.622Z,101068.17
2023-03-18T08:52:04.421Z,101067.70
2023-03-18T08:55:32.493Z,101071.55
2023-03-18T08:59:00.052Z,101068.09
2023-03-18T09:02:27.995Z,101062.13
2023-03-18T09:05:55.827Z,101064.60
2023-03-18T09:09:31.020Z,101068.33
2023-03-18T09:12:51.648Z,101061.55
2023-03-18T09:16:19.443Z,101062.70
2023-03-18T09:19:28.593Z,101064.27
2023-03-18T09:22:56.456Z,101059.21
2023-03-18T09:26:24.449Z,101060.23
2023-03-18T09:29:52.238Z,101058.70
2023-03-18T09:33:20.079Z,101061.44
2023-03-18T09:36:48.068Z,101059.72
2023-03-18T09:39:57.163Z,101057.59
2023-03-18T09:43:25.409Z,101056.64
2023-03-18T09:46:14.248Z,101060.61
2023-03-18T09:49:42.062Z,101057.39
2023-03-18T09:53:09.903Z,101050.23
2023-03-18T09:55:39.624Z,101051.76
2023-03-18T09:59:07.277Z,101050.61
2023-03-18T10:02:35.013Z,101052.82
2023-03-18T10:05:43.641Z,101051.35
2023-03-18T10:09:11.462Z,101045.27
2023-03-18T10:12:39.390Z,101046.77
2023-03-18T10:16:07.425Z,101041.03
2023-03-18T10:19:35.281Z,101043.75
2023-03-18T10:23:03.133Z,101042.98
2023-03-18T10:26:31.299Z,101029.31
2023-03-18T10:29:59.242Z,101036.14
2023-03-18T10:33:08.037Z,101036.63
2023-03-18T10:36:35.937Z,101035.04
2023-03-18T10:39:25.506Z,101033.50
2023-03-18T10:42:53.353Z,101031.38
2023-03-18T10:46:21.498Z,101029.18
2023-03-18T10:49:49.292Z,101023.73
2023-03-18T10:53:17.567Z,101012.54
2023-03-18T10:56:45.507Z,101013.41
2023-03-18T11:00:13.144Z,101013.11
2023-03-18T11:03:40.920Z,101007.02
2023-03-18T11:07:06.004Z,101000.19
2023-03-18T11:10:34.250Z,100998.55
2023-03-18T11:14:01.684Z,101006.20
2023-03-18T11:17:29.472Z,101003.84
2023-03-18T11:20:38.498Z,101005.09
2023-03-18T11:24:06.491Z,100998.45
2023-03-18T11:27:34.321Z,100993.67
2023-03-18T11:31:02.775Z,100988.13
2023-03-18T11:34:11.535Z,100981.58
2023-03-18T11:37:39.466Z,100982.88
2023-03-18T11:41:07.417Z,100971.92
2023-03-18T11:44:16.183Z,100966.26
2023-03-18T11:47:06.663Z,100965.24
2023-03-18T11:50:34.653Z,100965.11
2023-03-18T11:53:43.432Z,100965.19
2023-03-18T11:57:11.261Z,100963.86
2023-03-18T12:00:39.089Z,100964.13
2023-03-18T12:04:07.250Z,100961.38
2023-03-18T12:07:15.743Z,100959.32
2023-03-18T12:10:43.708Z,100958.80
2023-03-18T12:14:11.433Z,100955.20
2023-03-18T12:17:39.539Z,100956.34
2023-03-18T12:21:07.467Z,100953.67
2023-03-18T12:24:35.635Z,100952.64
2023-03-18T12:28:03.727Z,100946.77
2023-03-18T12:31:12.983Z,100950.52
2023-03-18T12:34:47.010Z,100944.77
2023-03-18T12:38:14.970Z,100941.83
2023-03-18T12:41:42.913Z,100942.41
2023-03-18T12:44:52.801Z,100949.83
2023-03-18T12:48:27.781Z,100943.74
2023-03-18T12:51:48.617Z,100944.93
2023-03-18T12:55:16.427Z,100939.14
2023-03-18T12:58:44.721Z,100939.98
2023-03-18T13:02:12.677Z,100938.02
2023-03-18T13:05:40.659Z,100940.84
2023-03-18T13:09:08.457Z,100937.86
2023-03-18T13:12:36.511Z,100934.20
2023-03-18T13:16:06.936Z,100933.44
2023-03-18T13:19:34.689Z,100930.23
2023-03-18T13:23:02.491Z,100933.27
2023-03-18T13:26:30.352Z,100930.61
2023-03-18T13:29:59.081Z,100926.02
2023-03-18T13:33:27.080Z,100924.55
2023-03-18T13:36:54.920Z,100926.36
2023-03-18T13:40:22.871Z,100920.27
2023-03-18T13:43:32.846Z,100925.46
2023-03-18T13:46:41.561Z,100919.80
2023-03-18T13:50:09.635Z,100914.55
2023-03-18T13:53:37.631Z,100914.81
2023-03-18T13:57:05.698Z,100910.69
2023-03-18T14:00:33.769Z,100910.73
2023-03-18T14:03:43.978Z,100914.19
2023-03-18T14:06:52.823Z,100911.06
2023-03-18T14:10:20.742Z,100915.45
2023-03-18T14:13:48.569Z,100913.42
2023-03-18T14:16:58.498Z,100908.52
2023-03-18T14:20:26.753Z,100909.66
2023-03-18T14:23:54.735Z,100905.67
2023-03-18T14:27:22.547Z,100908.27
2023-03-18T14:30:50.354Z,100907.69
2023-03-18T14:34:07.635Z,100903.66
2023-03-18T14:37:35.692Z,100910.70
2023-03-18T14:41:03.938Z,100909.30
2023-03-18T14:44:32.083Z,100909.11
2023-03-18T14:48:00.108Z,100909.12
2023-03-18T14:51:28.106Z,100918.99
2023-03-18T14:54:55.972Z,100912.96
2023-03-18T14:58:23.915Z,100912.81
2023-03-18T15:01:32.111Z,100913.05
2023-03-18T15:05:00.119Z,100911.67
2023-03-18T15:07:50.814Z,100908.98
2023-03-18T15:11:18.478Z,100910.23
2023-03-18T15:14:27.180Z,100908.16
2023-03-18T15:17:55.222Z,100914.25
2023-03-18T15:20:46.186Z,100909.17
2023-03-18T15:23:58.622Z,100910.77
2023-03-18T15:27:26.484Z,100911.84
2023-03-18T15:30:54.229Z,100910.17
2023-03-18T15:34:22.751Z,100913.65
2023-03-18T15:37:50.764Z,100913.51
2023-03-18T15:41:18.634Z,100913.42
2023-03-18T15:44:46.769Z,100922.16
2023-03-18T15:47:56.454Z,100919.31
2023-03-18T15:51:24.365Z,100917.67
2023-03-18T15:54:52.418Z,100922.13
2023-03-18T15:58:21.348Z,100927.84
2023-03-18T16:01:30.727Z,100931.80
2023-03-18T16:04:58.382Z,100928.39
2023-03-18T16:08:07.341Z,100928.10
2023-03-18T16:11:35.318Z,100931.33
2023-03-18T16:15:03.188Z,100933.83
2023-03-18T16:18:31.126Z,100937.61
2023-03-18T16:21:59.083Z,100937.77
2023-03-18T16:25:26.974Z,100938.17
2023-03-18T16:28:36.557Z,100940.75
2023-03-18T16:32:04.750Z,100945.08
2023-03-18T16:35:21.091Z,100946.98
2023-03-18T16:38:30.020Z,100949.00
2023-03-18T16:41:57.845Z,100952.61
2023-03-18T16:45:25.653Z,100959.34
2023-03-18T16:48:53.690Z,100954.52
2023-03-18T16:52:01.884Z,100957.08
2023-03-18T16:55:29.883Z,100961.55
2023-03-18T16:58:57.696Z,100956.92
2023-03-18T17:02:06.037Z,100957.86
2023-03-18T17:05:34.413Z,100964.89
2023-03-18T17:09:02.610Z,100964.40
2023-03-18T17:12:30.256Z,100967.62
2023-03-18T17:15:58.453Z,100970.96
2023-03-18T17:19:26.455Z,100974.34
2023-03-18T17:22:35.273Z,100978.30
2023-03-18T17:26:03.128Z,100982.06
2023-03-18T17:29:11.836Z,100986.74
2023-03-18T17:32:39.870Z,100989.95
2023-03-18T17:36:07.715Z,100994.77
2023-03-18T17:39:35.255Z,100989.17
2023-03-18T17:42:44.085Z,100988.42
2023-03-18T17:46:12.479Z,100989.95
2023-03-18T17:49:21.101Z,100990.88
2023-03-18T17:52:30.549Z,100990.58
2023-03-18T17:55:58.539Z,100989.77
2023-03-18T17:58:47.378Z,100992.25
2023-03-18T18:02:15.448Z,100991.64
2023-03-18T18:05:43.719Z,100996.09
2023-03-18T18:09:12.664Z,101000.51
2023-03-18T18:12:40.515Z,100998.25
2023-03-18T18:16:08.411Z,100994.45
2023-03-18T18:18:59.645Z,100999.92
2023-03-18T18:22:27.583Z,101004.06
2023-03-18T18:25:55.865Z,101006.16
2023-03-18T18:29:25.352Z,101009.41
2023-03-18T18:32:34.158Z,101009.16
2023-03-18T18:36:01.989Z,101005.75
2023-03-18T18:39:29.870Z,101009.42
2023-03-18T18:42:57.744Z,101011.90
2023-03-18T18:46:25.817Z,101007.81
2023-03-18T18:49:53.687Z,101012.70
2023-03-18T18:53:21.520Z,101009.13
2023-03-18T18:56:49.441Z,101013.96
2023-03-18T19:00:17.802Z,101015.10
2023-03-18T19:03:45.990Z,101009.89
2023-03-18T19:06:54.030Z,101016.02
2023-03-18T19:10:22.112Z,101014.46
2023-03-18T19:13:49.892Z,101013.63
2023-03-18T19:16:37.906Z,101017.84
2023-03-18T19:20:05.805Z,101020.60
2023-03-18T19:23:33.857Z,101023.09
2023-03-18T19:27:02.161Z,101023.98
2023-03-18T19:30:30.330Z,101017.36
2023-03-18T19:33:58.444Z,101016.20
2023-03-18T19:37:26.070Z,101013.29
2023-03-18T19:40:54.005Z,101008.66
2023-03-18T19:44:22.044Z,101010.89
2023-03-18T19:47:52.725Z,101013.73
2023-03-18T19:51:01.047Z,101018.39
2023-03-18T19:54:10.977Z,101020.94
2023-03-18T19:57:38.909Z,101018.17
2023-03-18T20:00:47.236Z,101016.24
2023-03-18T20:04:15.545Z,101014.68
2023-03-18T20:07:43.286Z,101018.67
2023-03-18T20:11:11.165Z,101015.08
2023-03-18T20:14:20.214Z,101010.33
2023-03-18T20:17:48.167Z,101006.66
2023-03-18T20:20:37.458Z,101010.82
2023-03-18T20:23:26.364Z,101012.67
2023-03-18T20:26:15.592Z,101010.08
2023-03-18T20:29:24.456Z,101010.27
2023-03-18T20:32:52.379Z,101007.52
2023-03-18T20:36:20.352Z,101002.44
2023-03-18T20:39:48.108Z,101004.85
2023-03-18T20:43:16.437Z,101002.98
2023-03-18T20:46:46.138Z,101007.51
2023-03-18T20:50:12.739Z,101005.25
2023-03-18T20:53:22.581Z,101007.04
2023-03-18T20:56:50.583Z,101004.02
2023-03-18T21:00:18.276Z,101005.06
2023-03-18T21:03:46.323Z,101007.66
2023-03-18T21:06:35.496Z,101006.17
2023-03-18T21:10:03.895Z,101003.19
2023-03-18T21:13:32.049Z,100995.20
2023-03-18T21:17:03.060Z,100995.00
2023-03-18T21:20:31.111Z,100993.30
2023-03-18T21:23:59.196Z,100994.64
2023-03-18T21:27:27.281Z,100993.24
2023-03-18T21:30:58.107Z,100996.63
2023-03-18T21:34:23.669Z,100995.17
2023-03-18T21:37:51.546Z,100999.15
2023-03-18T21:41:19.636Z,100994.95
2023-03-18T21:44:47.672Z,100995.98
2023-03-18T21:48:15.616Z,100996.86
2023-03-18T21:51:04.508Z,100996.06
2023-03-18T21:54:13.535Z,100996.27
2023-03-18T21:57:41.786Z,100996.80
2023-03-18T22:01:09.898Z,101001.36
2023-03-18T22:04:37.842Z,101007.48
2023-03-18T22:08:05.640Z,101000.18
2023-03-18T22:11:33.755Z,101001.61
2023-03-18T22:15:01.407Z,100999.31
2023-03-18T22:18:29.426Z,101001.80
2023-03-18T22:21:57.859Z,100998.73
2023-03-18T22:25:25.833Z,101003.42
2023-03-18T22:28:53.737Z,101004.94
2023-03-18T22:31:42.927Z,101005.73
2023-03-18T22:34:51.241Z,101003.34
2023-03-18T22:37:59.781Z,101000.58
2023-03-18T22:41:27.798Z,100999.66
2023-03-18T22:44:36.967Z,100998.23
2023-03-18T22:48:05.061Z,100999.11
2023-03-18T22:51:32.897Z,100996.08
2023-03-18T22:55:00.958Z,100997.49
2023-03-18T22:58:28.771Z,101000.66
2023-03-18T23:01:39.049Z,100997.23
2023-03-18T23:05:07.398Z,100998.06
2023-03-18T23:08:35.480Z,100997.65
2023-03-18T23:12:03.794Z,101002.13
2023-03-18T23:15:32.051Z,100997.28
2023-03-18T23:18:59.945Z,101002.04
2023-03-18T23:22:27.690Z,101002.74
2023-03-18T23:25:55.855Z,101005.17
2023-03-18T23:29:05.617Z,101001.48
2023-03-18T23:32:14.719Z,100998.46
2023-03-18T23:35:42.966Z,101001.46
2023-03-18T23:39:10.932Z,100998.52
2023-03-18T23:42:19.701Z,100993.26
2023-03-18T23:45:47.748Z,100983.85
2023-03-18T23:49:15.708Z,100983.93
2023-03-18T23:52:43.862Z,100979.03
2023-03-18T23:56:11.652Z,100975.58
2023-03-18T23:59:39.472Z,100975.65
